createdAt,value
2022-08-23T04:30:45.482Z,80.21
2022-08-23T04:31:45.476Z,80.21
2022-08-23T04:32:45.459Z,80.01
2022-08-23T04:33:45.453Z,79.50
2022-08-23T04:34:51.499Z,79.21
2022-08-23T04:35:46.415Z,78.70
2022-08-23T04:36:50.063Z,78.90
2022-08-23T04:37:46.393Z,79.50
2022-08-23T04:38:45.405Z,79.71
2022-08-23T04:39:45.406Z,79.30
2022-08-23T04:40:46.365Z,79.21
2022-08-23T04:41:45.347Z,79.21
2022-08-23T04:42:45.345Z,80.01
2022-08-23T04:43:45.337Z,79.71
2022-08-23T04:44:45.322Z,79.50
2022-08-23T04:45:45.351Z,79.00
2022-08-23T04:46:45.342Z,79.50
2022-08-23T04:47:45.288Z,79.57
2022-08-23T04:48:45.293Z,79.81
2022-08-23T04:49:45.377Z,80.07
2022-08-23T04:50:45.253Z,80.07
2022-08-23T04:51:53.520Z,79.71
2022-08-23T04:52:46.275Z,79.87
2022-08-23T04:53:45.227Z,80.18
2022-08-23T04:54:45.211Z,79.71
2022-08-23T04:55:45.207Z,80.11
2022-08-23T04:56:45.198Z,79.91
2022-08-23T04:57:45.208Z,79.21
2022-08-23T04:58:45.163Z,79.21
2022-08-23T04:59:45.149Z,80.11
2022-08-23T05:00:49.542Z,80.21
2022-08-23T05:01:46.132Z,79.87
2022-08-23T05:02:45.166Z,79.36
2022-08-23T05:03:45.109Z,79.16
2022-08-23T05:04:45.116Z,79.30
2022-08-23T05:05:45.131Z,79.67
2022-08-23T05:06:45.077Z,79.77
2022-08-23T05:07:45.076Z,79.47
2022-08-23T05:08:45.092Z,80.07
2022-08-23T05:09:45.044Z,79.77
2022-08-23T05:10:45.033Z,79.97
2022-08-23T05:11:45.080Z,80.18
2022-08-23T05:12:45.011Z,80.07
2022-08-23T05:13:45.021Z,79.36
2022-08-23T05:14:44.988Z,79.67
2022-08-23T05:15:44.978Z,79.23
2022-08-23T05:16:44.995Z,79.06
2022-08-23T05:17:44.977Z,78.66
2022-08-23T05:18:44.940Z,79.27
2022-08-23T05:19:47.304Z,78.92
2022-08-23T05:20:44.950Z,78.42
2022-08-23T05:21:44.932Z,78.42
2022-08-23T05:22:44.903Z,78.42
2022-08-23T05:23:44.963Z,78.83
2022-08-23T05:24:45.873Z,78.52
2022-08-23T05:25:44.885Z,78.52
2022-08-23T05:26:44.856Z,79.13
2022-08-23T05:27:44.854Z,79.23
2022-08-23T05:28:44.916Z,79.13
2022-08-23T05:29:44.824Z,78.79
2022-08-23T05:30:56.433Z,78.69
2022-08-23T05:31:46.264Z,78.69
2022-08-23T05:32:44.785Z,78.89
2022-08-23T05:33:44.775Z,78.49
2022-08-23T05:34:44.780Z,78.79
2022-08-23T05:35:44.766Z,78.89
2022-08-23T05:36:48.365Z,78.69
2022-08-23T05:37:45.730Z,78.35
2022-08-23T05:38:44.719Z,78.35
2022-08-23T05:39:44.772Z,77.88
2022-08-23T05:40:44.723Z,78.05
2022-08-23T05:41:44.752Z,78.75
2022-08-23T05:42:44.672Z,78.85
2022-08-23T05:43:44.666Z,78.59
2022-08-23T05:44:44.660Z,78.55
2022-08-23T05:45:44.648Z,78.55
2022-08-23T05:46:44.636Z,78.35
2022-08-23T05:47:44.651Z,78.45
2022-08-23T05:48:44.618Z,78.55
2022-08-23T05:49:44.602Z,78.61
2022-08-23T05:50:44.594Z,77.70
2022-08-23T05:51:44.598Z,77.40
2022-08-23T05:52:50.397Z,77.81
2022-08-23T05:53:45.570Z,77.91
2022-08-23T05:54:44.547Z,77.31
2022-08-23T05:55:44.533Z,77.20
2022-08-23T05:56:45.229Z,76.90
2022-08-23T05:57:44.520Z,76.76
2022-08-23T05:58:44.505Z,76.67
2022-08-23T05:59:44.520Z,76.36
2022-08-23T06:00:44.516Z,76.46
2022-08-23T06:01:44.483Z,77.47
2022-08-23T06:02:44.529Z,77.47
2022-08-23T06:03:44.472Z,76.93
2022-08-23T06:04:44.441Z,76.63
2022-08-23T06:05:44.449Z,76.83
2022-08-23T06:06:44.420Z,76.63
2022-08-23T06:07:44.424Z,76.29
2022-08-23T06:08:44.399Z,76.19
2022-08-23T06:09:44.393Z,74.58
2022-08-23T06:10:44.375Z,72.87
2022-08-23T06:11:44.367Z,73.47
2022-08-23T06:12:44.375Z,73.74
2022-08-23T06:13:44.397Z,73.41
2022-08-23T06:14:44.334Z,72.50
2022-08-23T06:15:44.327Z,72.24
2022-08-23T06:16:44.325Z,72.30
2022-08-23T06:17:44.349Z,71.97
2022-08-23T06:18:44.377Z,70.83
2022-08-23T06:19:44.277Z,71.43
2022-08-23T06:20:44.335Z,71.23
2022-08-23T06:21:44.257Z,71.63
2022-08-23T06:22:44.318Z,70.09
2022-08-23T06:23:44.235Z,69.39
2022-08-23T06:24:44.240Z,68.69
2022-08-23T06:25:44.207Z,69.26
2022-08-23T06:26:44.219Z,69.86
2022-08-23T06:27:44.236Z,68.92
2022-08-23T06:28:44.208Z,67.92
2022-08-23T06:29:44.185Z,67.12
2022-08-23T06:30:44.276Z,67.09
2022-08-23T06:31:44.154Z,67.69
2022-08-23T06:32:44.187Z,66.78
2022-08-23T06:33:44.144Z,67.09
2022-08-23T06:34:44.126Z,66.89
2022-08-23T06:35:44.141Z,66.69
2022-08-23T06:36:44.098Z,66.89
2022-08-23T06:37:44.077Z,66.19
2022-08-23T06:38:44.068Z,66.28
2022-08-23T06:39:44.181Z,66.28
2022-08-23T06:40:44.070Z,66.39
2022-08-23T06:41:44.038Z,66.72
2022-08-23T06:42:44.041Z,66.69
2022-08-23T06:43:44.021Z,65.99
2022-08-23T06:44:44.005Z,66.89
2022-08-23T06:45:43.991Z,66.49
2022-08-23T06:46:45.054Z,66.46
2022-08-23T06:47:43.973Z,65.92
2022-08-23T06:48:43.973Z,65.72
2022-08-23T06:49:57.704Z,66.82
2022-08-23T06:50:47.803Z,66.59
2022-08-23T06:51:43.928Z,65.09
2022-08-23T06:52:43.941Z,65.06
2022-08-23T06:53:43.909Z,65.06
2022-08-23T06:54:43.894Z,64.83
2022-08-23T06:55:43.902Z,63.70
2022-08-23T06:56:43.873Z,63.00
2022-08-23T06:57:43.884Z,63.40
2022-08-23T06:58:43.859Z,63.30
2022-08-23T06:59:43.839Z,62.87
2022-08-23T07:00:43.874Z,62.37
2022-08-23T07:01:46.531Z,61.77
2022-08-23T07:02:43.843Z,62.07
2022-08-23T07:03:44.820Z,62.07
2022-08-23T07:04:43.817Z,62.45
2022-08-23T07:05:43.791Z,61.44
2022-08-23T07:06:43.783Z,60.95
2022-08-23T07:07:44.354Z,61.05
2022-08-23T07:08:43.742Z,60.92
2022-08-23T07:09:43.765Z,61.39
2022-08-23T07:10:43.728Z,60.39
2022-08-23T07:11:43.714Z,59.69
2022-08-23T07:12:43.716Z,60.49
2022-08-23T07:13:43.690Z,59.49
2022-08-23T07:14:43.700Z,59.56
2022-08-23T07:15:43.711Z,57.97
2022-08-23T07:16:44.668Z,58.37
2022-08-23T07:17:43.643Z,57.57
2022-08-23T07:18:43.640Z,57.37
2022-08-23T07:19:43.698Z,58.07
2022-08-23T07:20:43.612Z,57.97
2022-08-23T07:21:43.603Z,57.35
2022-08-23T07:22:43.606Z,56.45
2022-08-23T07:23:46.407Z,56.75
2022-08-23T07:24:43.587Z,56.75
2022-08-23T07:25:43.556Z,56.23
2022-08-23T07:26:43.567Z,56.52
2022-08-23T07:27:43.572Z,56.62
2022-08-23T07:28:43.530Z,56.62
2022-08-23T07:29:43.581Z,56.42
2022-08-23T07:30:45.435Z,56.00
2022-08-23T07:31:43.563Z,56.20
2022-08-23T07:32:43.502Z,56.70
2022-08-23T07:33:44.591Z,56.37
2022-08-23T07:34:43.484Z,56.20
2022-08-23T07:35:43.510Z,56.57
2022-08-23T07:36:43.444Z,56.64
2022-08-23T07:37:43.443Z,56.44
2022-08-23T07:38:43.434Z,55.94
2022-08-23T07:39:43.444Z,55.94
2022-08-23T07:40:43.405Z,55.82
2022-08-23T07:41:43.396Z,55.65
2022-08-23T07:42:43.389Z,56.61
2022-08-23T07:43:43.362Z,54.93
2022-08-23T07:44:43.351Z,55.00
2022-08-23T07:45:43.346Z,54.70
2022-08-23T07:46:43.397Z,54.70
2022-08-23T07:47:49.635Z,54.87
2022-08-23T07:48:53.884Z,55.07
2022-08-23T07:49:44.306Z,54.57
2022-08-23T07:50:49.940Z,54.80
2022-08-23T07:51:44.279Z,55.07
2022-08-23T07:52:43.280Z,55.76
2022-08-23T07:53:46.072Z,55.74
2022-08-23T07:54:48.316Z,54.22
2022-08-23T07:55:44.230Z,53.73
2022-08-23T07:56:43.264Z,54.13
2022-08-23T07:57:43.212Z,53.13
2022-08-23T07:58:43.229Z,53.83
2022-08-23T07:59:43.204Z,53.83
2022-08-23T08:00:43.197Z,53.23
2022-08-23T08:01:43.270Z,54.32
2022-08-23T08:02:43.244Z,53.83
2022-08-23T08:03:43.152Z,53.83
2022-08-23T08:04:43.129Z,53.83
2022-08-23T08:05:43.128Z,53.70
2022-08-23T08:06:43.168Z,52.91
2022-08-23T08:07:43.127Z,52.71
2022-08-23T08:08:43.104Z,52.69
2022-08-23T08:09:43.092Z,52.19
2022-08-23T08:10:43.074Z,53.67
2022-08-23T08:11:43.070Z,52.19
2022-08-23T08:12:43.079Z,54.07
2022-08-23T08:13:43.033Z,52.78
2022-08-23T08:14:43.034Z,52.46
2022-08-23T08:15:43.147Z,52.36
2022-08-23T08:16:43.011Z,52.36
2022-08-23T08:17:43.019Z,52.46
2022-08-23T08:18:43.038Z,52.96
2022-08-23T08:19:42.988Z,52.17
2022-08-23T08:20:42.963Z,51.57
2022-08-23T08:21:42.980Z,52.29
2022-08-23T08:22:47.241Z,52.29
2022-08-23T08:23:43.943Z,52.86
2022-08-23T08:24:42.927Z,52.76
2022-08-23T08:25:42.926Z,53.06
2022-08-23T08:26:42.911Z,52.83
2022-08-23T08:27:42.902Z,51.75
2022-08-23T08:28:42.889Z,51.05
2022-08-23T08:29:42.868Z,51.65
2022-08-23T08:30:42.879Z,51.87
2022-08-23T08:31:42.943Z,52.73
2022-08-23T08:32:47.266Z,51.45
2022-08-23T08:33:42.831Z,51.25
2022-08-23T08:34:42.838Z,51.84
2022-08-23T08:35:42.840Z,51.45
2022-08-23T08:36:42.826Z,52.22
2022-08-23T08:37:42.830Z,52.61
2022-08-23T08:38:47.898Z,52.09
2022-08-23T08:39:43.775Z,51.18
2022-08-23T08:40:42.772Z,50.76
2022-08-23T08:41:42.743Z,50.76
2022-08-23T08:42:42.744Z,49.87
2022-08-23T08:43:42.718Z,50.46
2022-08-23T08:44:42.698Z,50.56
2022-08-23T08:45:42.702Z,50.54
2022-08-23T08:46:43.745Z,50.56
2022-08-23T08:47:42.686Z,50.43
2022-08-23T08:48:42.690Z,49.45
2022-08-23T08:49:42.652Z,49.15
2022-08-23T08:50:42.647Z,48.96
2022-08-23T08:51:42.655Z,49.18
2022-08-23T08:52:42.638Z,49.87
2022-08-23T08:53:42.606Z,49.48
2022-08-23T08:54:46.127Z,50.16
2022-08-23T08:55:43.615Z,49.57
2022-08-23T08:56:42.586Z,49.48
2022-08-23T08:57:42.575Z,49.84
2022-08-23T08:58:42.573Z,49.35
2022-08-23T08:59:42.569Z,49.65
2022-08-23T09:00:42.563Z,49.27
2022-08-23T09:01:42.602Z,50.24
2022-08-23T09:02:42.562Z,49.25
2022-08-23T09:03:43.094Z,49.35
2022-08-23T09:04:42.508Z,49.65
2022-08-23T09:05:42.499Z,49.05
2022-08-23T09:06:42.473Z,49.45
2022-08-23T09:07:42.459Z,49.62
2022-08-23T09:08:42.444Z,49.33
2022-08-23T09:09:42.447Z,49.43
2022-08-23T09:10:42.426Z,49.22
2022-08-23T09:11:42.430Z,48.83
2022-08-23T09:12:42.413Z,48.78
2022-08-23T09:13:46.001Z,50.16
2022-08-23T09:14:42.383Z,50.46
2022-08-23T09:15:42.399Z,49.74
2022-08-23T09:16:42.358Z,49.52
2022-08-23T09:17:43.893Z,49.52
2022-08-23T09:18:42.371Z,49.82
2022-08-23T09:19:42.332Z,50.61
2022-08-23T09:20:42.344Z,49.40
2022-08-23T09:21:42.338Z,48.81
2022-08-23T09:22:42.302Z,49.48
2022-08-23T09:23:42.279Z,48.66
2022-08-23T09:24:42.273Z,46.89
2022-08-23T09:25:42.282Z,47.28
2022-08-23T09:26:43.592Z,47.23
2022-08-23T09:27:42.263Z,47.82
2022-08-23T09:28:42.237Z,49.50
2022-08-23T09:29:42.244Z,47.55
2022-08-23T09:30:42.220Z,49.52
2022-08-23T09:31:42.315Z,48.74
2022-08-23T09:32:42.194Z,49.50
2022-08-23T09:33:42.215Z,49.67
2022-08-23T09:34:42.184Z,49.38
2022-08-23T09:35:42.161Z,48.49
2022-08-23T09:36:42.141Z,47.90
2022-08-23T09:37:42.145Z,48.83
2022-08-23T09:38:43.415Z,49.01
2022-08-23T09:39:42.169Z,48.91
2022-08-23T09:40:42.170Z,48.59
2022-08-23T09:41:42.093Z,47.78
2022-08-23T09:42:42.105Z,47.97
2022-08-23T09:43:42.065Z,47.48
2022-08-23T09:44:42.053Z,47.66
2022-08-23T09:45:42.064Z,47.75
2022-08-23T09:46:42.142Z,47.24
2022-08-23T09:47:44.325Z,47.04
2022-08-23T09:48:42.029Z,46.55
2022-08-23T09:49:42.004Z,45.64
2022-08-23T09:50:41.987Z,45.64
2022-08-23T09:51:42.866Z,46.33
2022-08-23T09:52:41.979Z,45.05
2022-08-23T09:53:41.956Z,46.03
2022-08-23T09:54:46.855Z,45.35
2022-08-23T09:55:42.943Z,45.81
2022-08-23T09:56:41.947Z,45.03
2022-08-23T09:57:41.952Z,45.03
2022-08-23T09:58:41.924Z,44.73
2022-08-23T09:59:41.891Z,44.93
2022-08-23T10:00:41.888Z,44.83
2022-08-23T10:01:41.929Z,44.93
2022-08-23T10:02:41.867Z,45.01
2022-08-23T10:03:41.926Z,45.40
2022-08-23T10:04:41.913Z,44.49
2022-08-23T10:05:41.829Z,44.81
2022-08-23T10:06:41.814Z,44.40
2022-08-23T10:07:42.511Z,44.59
2022-08-23T10:08:43.375Z,45.09
2022-08-23T10:09:41.784Z,42.85
2022-08-23T10:10:41.810Z,43.46
2022-08-23T10:11:41.770Z,45.32
2022-08-23T10:12:41.774Z,45.20
2022-08-23T10:13:41.790Z,44.81
2022-08-23T10:14:43.209Z,44.89
2022-08-23T10:15:41.815Z,43.22
2022-08-23T10:16:41.722Z,44.96
2022-08-23T10:17:41.704Z,44.84
2022-08-23T10:18:41.729Z,44.74
2022-08-23T10:19:41.702Z,43.55
2022-08-23T10:20:41.691Z,43.55
2022-08-23T10:21:41.679Z,43.35
2022-08-23T10:22:41.713Z,43.57
2022-08-23T10:23:41.635Z,43.76
2022-08-23T10:24:41.628Z,43.57
2022-08-23T10:25:41.641Z,43.47
2022-08-23T10:26:41.624Z,42.98
2022-08-23T10:27:41.599Z,43.35
2022-08-23T10:28:41.585Z,43.26
2022-08-23T10:29:41.574Z,42.57
2022-08-23T10:30:41.637Z,44.43
2022-08-23T10:31:41.570Z,42.76
2022-08-23T10:32:41.549Z,42.37
2022-08-23T10:33:41.540Z,42.88
2022-08-23T10:34:41.527Z,42.88
2022-08-23T10:35:41.544Z,42.58
2022-08-23T10:36:41.515Z,42.66
2022-08-23T10:37:41.523Z,42.39
2022-08-23T10:38:41.479Z,42.98
2022-08-23T10:39:41.525Z,42.88
2022-08-23T10:40:41.516Z,43.27
2022-08-23T10:41:41.453Z,42.51
2022-08-23T10:42:41.435Z,43.00
2022-08-23T10:43:41.445Z,43.49
2022-08-23T10:44:41.431Z,44.18
2022-08-23T10:45:48.995Z,42.19
2022-08-23T10:46:41.580Z,43.00
2022-08-23T10:47:41.473Z,42.61
2022-08-23T10:48:41.376Z,42.32
2022-08-23T10:49:41.403Z,42.71
2022-08-23T10:50:41.367Z,43.12
2022-08-23T10:51:42.920Z,43.49
2022-08-23T10:52:41.359Z,42.80
2022-08-23T10:53:41.348Z,42.41
2022-08-23T10:54:41.330Z,42.90
2022-08-23T10:55:41.348Z,43.29
2022-08-23T10:56:48.651Z,43.57
2022-08-23T10:57:42.296Z,42.66
2022-08-23T10:58:41.291Z,43.23
2022-08-23T10:59:41.320Z,41.96
2022-08-23T11:00:41.372Z,42.43
2022-08-23T11:01:41.309Z,41.74
2022-08-23T11:02:41.237Z,41.84
2022-08-23T11:03:41.218Z,41.55
2022-08-23T11:04:41.224Z,41.08
2022-08-23T11:05:41.198Z,42.72
2022-08-23T11:06:41.275Z,42.62
2022-08-23T11:07:41.194Z,42.11
2022-08-23T11:08:45.577Z,40.64
2022-08-23T11:09:42.197Z,40.72
2022-08-23T11:10:41.157Z,41.02
2022-08-23T11:11:42.192Z,40.53
2022-08-23T11:12:41.173Z,40.35
2022-08-23T11:13:41.119Z,42.15
2022-08-23T11:14:41.135Z,41.74
2022-08-23T11:15:44.642Z,42.15
2022-08-23T11:16:41.127Z,41.64
2022-08-23T11:17:41.084Z,41.55
2022-08-23T11:18:41.136Z,40.47
2022-08-23T11:19:41.070Z,41.13
2022-08-23T11:20:41.052Z,42.19
2022-08-23T11:21:41.040Z,41.41
2022-08-23T11:22:41.045Z,40.60
2022-08-23T11:23:41.050Z,40.11
2022-08-23T11:24:41.041Z,39.82
2022-08-23T11:25:41.105Z,39.82
2022-08-23T11:26:40.995Z,40.31
2022-08-23T11:27:40.993Z,40.01
2022-08-23T11:28:40.970Z,40.19
2022-08-23T11:29:41.557Z,39.41
2022-08-23T11:30:40.978Z,39.33
2022-08-23T11:31:40.968Z,39.53
2022-08-23T11:32:40.920Z,39.62
2022-08-23T11:33:40.917Z,40.39
2022-08-23T11:34:40.917Z,39.70
2022-08-23T11:35:43.369Z,39.61
2022-08-23T11:36:40.922Z,39.61
2022-08-23T11:37:40.905Z,39.82
2022-08-23T11:38:40.860Z,39.53
2022-08-23T11:39:40.910Z,40.01
2022-08-23T11:40:40.855Z,39.53
2022-08-23T11:41:40.836Z,39.64
2022-08-23T11:42:40.815Z,39.25
2022-08-23T11:43:40.826Z,39.45
2022-08-23T11:44:40.819Z,39.66
2022-08-23T11:45:40.780Z,40.82
2022-08-23T11:46:40.769Z,39.45
2022-08-23T11:47:40.765Z,39.66
2022-08-23T11:48:43.433Z,40.25
2022-08-23T11:49:40.769Z,39.37
2022-08-23T11:50:40.763Z,39.66
2022-08-23T11:51:40.753Z,39.37
2022-08-23T11:52:40.728Z,40.16
2022-08-23T11:53:40.722Z,39.78
2022-08-23T11:54:40.689Z,40.56
2022-08-23T11:55:40.718Z,39.56
2022-08-23T11:56:44.384Z,39.47
2022-08-23T11:57:41.672Z,40.03
2022-08-23T11:58:40.671Z,39.25
2022-08-23T11:59:41.522Z,39.35
2022-08-23T12:00:40.627Z,40.33
2022-08-23T12:01:40.657Z,40.21
2022-08-23T12:02:40.717Z,39.33
2022-08-23T12:03:40.835Z,39.54
2022-08-23T12:04:40.619Z,39.72
2022-08-23T12:05:40.617Z,39.64
2022-08-23T12:06:40.683Z,40.14
2022-08-23T12:07:40.614Z,40.21
2022-08-23T12:08:40.542Z,39.45
2022-08-23T12:09:40.532Z,39.35
2022-08-23T12:10:40.519Z,40.23
2022-08-23T12:11:40.545Z,40.50
2022-08-23T12:12:45.166Z,40.00
2022-08-23T12:13:40.540Z,40.41
2022-08-23T12:14:40.475Z,39.41
2022-08-23T12:15:41.144Z,39.22
2022-08-23T12:16:44.166Z,38.92
2022-08-23T12:17:40.600Z,39.12
2022-08-23T12:18:40.432Z,39.33
2022-08-23T12:19:41.456Z,39.53
2022-08-23T12:20:40.407Z,39.82
2022-08-23T12:21:40.411Z,39.43
2022-08-23T12:22:40.389Z,40.11
2022-08-23T12:23:40.382Z,39.22
2022-08-23T12:24:40.414Z,39.12
2022-08-23T12:25:40.358Z,39.51
2022-08-23T12:26:40.416Z,39.31
2022-08-23T12:27:40.354Z,39.14
2022-08-23T12:28:40.339Z,39.53
2022-08-23T12:29:40.335Z,39.92
2022-08-23T12:30:44.132Z,39.53
2022-08-23T12:31:40.314Z,39.31
2022-08-23T12:32:40.279Z,39.22
2022-08-23T12:33:40.299Z,39.51
2022-08-23T12:34:40.261Z,39.04
2022-08-23T12:35:40.275Z,39.53
2022-08-23T12:36:40.236Z,39.53
2022-08-23T12:37:40.225Z,38.67
2022-08-23T12:38:40.230Z,39.45
2022-08-23T12:39:40.201Z,39.07
2022-08-23T12:40:42.650Z,39.66
2022-08-23T12:41:40.206Z,40.27
2022-08-23T12:42:40.165Z,40.95
2022-08-23T12:43:40.157Z,40.27
2022-08-23T12:44:40.179Z,40.68
2022-08-23T12:45:40.153Z,40.48
2022-08-23T12:46:40.219Z,40.58
2022-08-23T12:47:43.019Z,40.29
2022-08-23T12:48:40.108Z,40.48
2022-08-23T12:49:40.099Z,40.29
2022-08-23T12:50:40.119Z,40.98
2022-08-23T12:51:40.102Z,40.56
2022-08-23T12:52:40.066Z,40.45
2022-08-23T12:53:44.583Z,39.66
2022-08-23T12:54:41.053Z,39.69
2022-08-23T12:55:40.039Z,39.59
2022-08-23T12:56:40.097Z,39.17
2022-08-23T12:57:40.033Z,39.27
2022-08-23T12:58:40.013Z,39.66
2022-08-23T12:59:40.010Z,39.86
2022-08-23T13:00:40.000Z,39.25
2022-08-23T13:01:40.025Z,39.06
2022-08-23T13:02:40.014Z,39.45
2022-08-23T13:03:39.967Z,39.15
2022-08-23T13:04:39.949Z,39.54
2022-08-23T13:05:39.944Z,39.74
2022-08-23T13:06:39.947Z,39.45
2022-08-23T13:07:39.950Z,39.14
2022-08-23T13:08:39.923Z,39.14
2022-08-23T13:09:39.910Z,38.65
2022-08-23T13:10:39.910Z,38.57
2022-08-23T13:11:39.894Z,38.37
2022-08-23T13:12:39.861Z,39.45
2022-08-23T13:13:39.898Z,39.23
2022-08-23T13:14:39.858Z,38.67
2022-08-23T13:15:39.884Z,38.96
2022-08-23T13:16:39.843Z,39.15
2022-08-23T13:17:39.817Z,39.17
2022-08-23T13:18:39.800Z,40.06
2022-08-23T13:19:39.830Z,39.27
2022-08-23T13:20:39.806Z,40.64
2022-08-23T13:21:40.342Z,39.37
2022-08-23T13:22:39.809Z,39.76
2022-08-23T13:23:39.752Z,39.56
2022-08-23T13:24:39.744Z,39.66
2022-08-23T13:25:39.743Z,39.37
2022-08-23T13:26:39.759Z,39.78
2022-08-23T13:27:39.710Z,39.56
2022-08-23T13:28:39.735Z,40.25
2022-08-23T13:29:39.692Z,39.39
2022-08-23T13:30:39.727Z,39.27
2022-08-23T13:31:39.701Z,39.19
2022-08-23T13:32:39.725Z,40.27
2022-08-23T13:33:41.181Z,39.39
2022-08-23T13:34:39.638Z,39.80
2022-08-23T13:35:39.633Z,41.08
2022-08-23T13:36:39.724Z,40.39
2022-08-23T13:37:39.607Z,40.01
2022-08-23T13:38:39.608Z,40.39
2022-08-23T13:39:39.608Z,40.31
2022-08-23T13:40:39.613Z,41.19
2022-08-23T13:41:39.566Z,39.92
2022-08-23T13:42:39.557Z,39.62
2022-08-23T13:43:39.547Z,39.25
2022-08-23T13:44:39.528Z,40.41
2022-08-23T13:45:39.559Z,40.21
2022-08-23T13:46:39.592Z,39.43
2022-08-23T13:47:39.504Z,40.01
2022-08-23T13:48:39.490Z,40.41
2022-08-23T13:49:39.477Z,39.92
2022-08-23T13:50:39.469Z,40.51
2022-08-23T13:51:39.481Z,41.41
2022-08-23T13:53:03.069Z,41.88
2022-08-23T13:53:40.437Z,41.19
2022-08-23T13:54:39.462Z,40.41
2022-08-23T13:55:39.421Z,41.00
2022-08-23T13:56:39.416Z,39.90
2022-08-23T13:57:39.414Z,40.29
2022-08-23T13:58:39.395Z,39.82
2022-08-23T13:59:39.386Z,40.41
2022-08-23T14:00:39.361Z,39.62
2022-08-23T14:01:40.432Z,40.31
2022-08-23T14:02:39.344Z,40.90
2022-08-23T14:03:39.404Z,41.76
2022-08-23T14:04:39.386Z,40.11
2022-08-23T14:05:39.334Z,40.29
2022-08-23T14:06:39.302Z,40.11
2022-08-23T14:07:39.329Z,41.09
2022-08-23T14:08:39.277Z,40.41
2022-08-23T14:09:39.266Z,40.41
2022-08-23T14:10:39.293Z,40.01
2022-08-23T14:11:39.359Z,40.31
2022-08-23T14:12:39.342Z,41.00
2022-08-23T14:13:39.346Z,41.78
2022-08-23T14:14:39.241Z,40.61
2022-08-23T14:15:56.793Z,40.41
2022-08-23T14:16:40.648Z,40.51
2022-08-23T14:17:39.258Z,39.74
2022-08-23T14:19:15.108Z,40.53
2022-08-23T14:20:32.494Z,40.31
2022-08-23T14:20:47.444Z,40.33
2022-08-23T14:21:40.150Z,40.62
2022-08-23T14:22:40.435Z,40.62
2022-08-23T14:23:39.119Z,39.74
2022-08-23T14:24:39.177Z,40.43
2022-08-23T14:25:39.104Z,41.39
2022-08-23T14:26:39.131Z,40.51
2022-08-23T14:27:40.093Z,40.01
2022-08-23T14:28:42.603Z,39.72
2022-08-23T14:29:40.049Z,40.31
2022-08-23T14:30:39.106Z,40.29
2022-08-23T14:31:39.032Z,40.58
2022-08-23T14:32:39.048Z,40.00
2022-08-23T14:33:39.030Z,41.17
2022-08-23T14:34:39.002Z,40.09
2022-08-23T14:35:38.991Z,40.98
2022-08-23T14:36:39.006Z,40.19
2022-08-23T14:38:39.962Z,40.48
2022-08-23T14:39:38.975Z,39.61
2022-08-23T14:40:38.937Z,40.98
2022-08-23T14:41:38.926Z,40.61
2022-08-23T14:42:38.917Z,40.61
2022-08-23T14:43:38.932Z,39.53
2022-08-23T14:44:38.919Z,40.61
2022-08-23T14:45:38.972Z,40.31
2022-08-23T14:46:38.933Z,40.39
2022-08-23T14:47:38.865Z,39.61
2022-08-23T14:48:38.872Z,39.82
2022-08-23T14:49:38.846Z,39.23
2022-08-23T14:50:38.856Z,39.53
2022-08-23T14:51:38.829Z,40.70
2022-08-23T14:52:38.822Z,40.88
2022-08-23T14:53:38.811Z,40.39
2022-08-23T14:54:38.791Z,40.48
2022-08-23T14:55:38.787Z,40.80
2022-08-23T14:56:38.804Z,40.61
2022-08-23T14:57:38.788Z,40.21
2022-08-23T14:58:38.748Z,40.51
2022-08-23T14:59:38.770Z,40.51
2022-08-23T15:00:38.753Z,41.78
2022-08-23T15:01:38.779Z,40.03
2022-08-23T15:02:38.709Z,40.82
2022-08-23T15:03:38.758Z,40.23
2022-08-23T15:04:38.681Z,40.13
2022-08-23T15:05:38.683Z,41.11
2022-08-23T15:06:46.352Z,41.71
2022-08-23T15:07:39.653Z,41.71
2022-08-23T15:08:38.673Z,42.68
2022-08-23T15:09:38.657Z,41.63
2022-08-23T15:12:57.913Z,42.51
2022-08-23T15:13:54.732Z,43.27
2022-08-23T15:14:39.573Z,42.21
2022-08-23T15:15:38.592Z,42.41
2022-08-23T15:16:38.616Z,42.41
2022-08-23T15:17:38.562Z,43.76
2022-08-23T15:18:38.530Z,42.71
2022-08-23T15:19:39.750Z,42.71
2022-08-23T15:20:38.527Z,42.29
2022-08-23T15:21:38.509Z,43.00
2022-08-23T15:22:44.388Z,42.21
2022-08-23T15:23:39.509Z,42.61
2022-08-23T15:24:38.474Z,42.21
2022-08-23T15:25:38.499Z,42.02
2022-08-23T15:26:38.479Z,42.11
2022-08-23T15:27:38.441Z,41.63
2022-08-23T15:28:38.440Z,42.21
2022-08-23T15:29:38.431Z,42.61
2022-08-23T15:30:38.472Z,42.61
2022-08-23T15:31:38.418Z,42.11
2022-08-23T15:32:38.413Z,41.24
2022-08-23T15:33:38.397Z,41.74
2022-08-23T15:34:38.389Z,42.33
2022-08-23T15:35:38.431Z,43.00
2022-08-23T15:36:38.364Z,42.41
2022-08-23T15:37:38.362Z,42.43
2022-08-23T15:38:38.339Z,42.43
2022-08-23T15:39:38.319Z,42.92
2022-08-23T15:40:38.311Z,42.63
2022-08-23T15:41:38.319Z,42.63
2022-08-23T15:42:38.301Z,42.63
2022-08-23T15:43:38.287Z,42.72
2022-08-23T15:44:38.318Z,42.72
2022-08-23T15:45:38.350Z,43.22
2022-08-23T15:46:38.235Z,42.92
2022-08-23T15:47:38.303Z,43.51
2022-08-23T15:48:38.220Z,43.51
2022-08-23T15:49:38.227Z,42.63
2022-08-23T15:50:38.206Z,42.92
2022-08-23T15:51:38.187Z,42.75
2022-08-23T15:52:38.179Z,43.83
2022-08-23T15:53:38.192Z,43.12
2022-08-23T15:54:38.159Z,43.53
2022-08-23T15:55:38.145Z,44.22
2022-08-23T15:56:38.138Z,45.89
2022-08-23T15:57:38.145Z,44.79
2022-08-23T15:58:38.123Z,45.01
2022-08-23T15:59:38.110Z,43.73
2022-08-23T16:00:38.129Z,43.33
2022-08-23T16:01:38.127Z,45.32
2022-08-23T16:03:04.211Z,45.01
2022-08-23T16:03:39.150Z,43.26
2022-08-23T16:04:38.055Z,44.54
2022-08-23T16:05:38.045Z,45.52
2022-08-23T16:06:38.085Z,44.93
2022-08-23T16:07:38.036Z,45.52
2022-08-23T16:08:38.017Z,45.42
2022-08-23T16:09:37.999Z,47.49
2022-08-23T16:10:38.004Z,48.57
2022-08-23T16:11:37.998Z,49.06
2022-08-23T16:12:38.028Z,47.39
2022-08-23T16:13:37.953Z,45.54
2022-08-23T16:14:37.969Z,47.31
2022-08-23T16:15:37.940Z,48.20
2022-08-23T16:16:38.027Z,49.18
2022-08-23T16:17:37.923Z,50.26
2022-08-23T16:18:37.912Z,50.56
2022-08-23T16:19:37.996Z,49.48
2022-08-23T16:20:37.891Z,49.21
2022-08-23T16:21:37.883Z,50.88
2022-08-23T16:22:37.867Z,49.30
2022-08-23T16:23:37.866Z,50.49
2022-08-23T16:24:37.848Z,50.71
2022-08-23T16:25:37.876Z,50.88
2022-08-23T16:26:37.855Z,51.10
2022-08-23T16:27:37.819Z,51.30
2022-08-23T16:28:37.822Z,50.71
2022-08-23T16:29:37.810Z,51.30
2022-08-23T16:30:37.887Z,52.68
2022-08-23T16:31:39.203Z,52.58
2022-08-23T16:32:37.758Z,50.24
2022-08-23T16:33:37.761Z,50.44
2022-08-23T16:34:37.734Z,52.50
2022-08-23T16:35:37.720Z,53.78
2022-08-23T16:36:37.747Z,51.15
2022-08-23T16:37:37.720Z,50.66
2022-08-23T16:38:37.703Z,50.66
2022-08-23T16:39:37.708Z,50.95
2022-08-23T16:40:37.668Z,51.54
2022-08-23T16:41:37.660Z,50.36
2022-08-23T16:42:37.654Z,50.46
2022-08-23T16:43:37.680Z,51.25
2022-08-23T16:44:37.646Z,51.74
2022-08-23T16:45:37.710Z,51.94
2022-08-23T16:46:46.181Z,51.77
2022-08-23T16:47:37.594Z,53.44
2022-08-23T16:48:37.586Z,53.44
2022-08-23T16:49:37.578Z,52.46
2022-08-23T16:50:37.557Z,53.94
2022-08-23T16:51:37.567Z,53.44
2022-08-23T16:52:37.548Z,54.16
2022-08-23T16:53:37.542Z,53.86
2022-08-23T16:54:37.516Z,54.55
2022-08-23T16:55:37.505Z,52.87
2022-08-23T16:56:37.499Z,51.79
2022-08-23T16:57:37.497Z,53.37
2022-08-23T16:58:37.489Z,53.30
2022-08-23T16:59:40.524Z,50.73
2022-08-23T17:00:37.450Z,52.01
2022-08-23T17:01:37.496Z,50.73
2022-08-23T17:02:37.496Z,50.83
2022-08-23T17:03:37.424Z,51.52
2022-08-23T17:04:37.405Z,53.50
2022-08-23T17:05:37.392Z,51.72
2022-08-23T17:06:37.407Z,53.30
2022-08-23T17:07:37.383Z,53.59
2022-08-23T17:08:37.402Z,51.92
2022-08-23T17:09:37.366Z,53.39
2022-08-23T17:10:37.377Z,53.99
2022-08-23T17:11:37.342Z,53.99
2022-08-23T17:12:37.331Z,55.27
2022-08-23T17:13:37.314Z,53.03
2022-08-23T17:14:37.312Z,54.02
2022-08-23T17:15:37.322Z,54.38
2022-08-23T17:16:37.367Z,53.03
2022-08-23T17:17:37.278Z,51.94
2022-08-23T17:18:37.280Z,54.41
2022-08-23T17:19:37.256Z,53.42
2022-08-23T17:20:37.260Z,53.92
2022-08-23T17:21:37.236Z,54.21
2022-08-23T17:22:37.231Z,54.51
2022-08-23T17:23:40.557Z,53.12
2022-08-23T17:24:37.238Z,53.81
2022-08-23T17:25:37.191Z,53.45